createdAt,value
2023-03-21T00:01:56.672Z,69.95
2023-03-21T00:04:25.484Z,69.58
2023-03-21T00:06:52.641Z,69.95
2023-03-21T00:09:19.929Z,70.41
2023-03-21T00:11:46.786Z,71.00
2023-03-21T00:14:15.959Z,70.45
2023-03-21T00:16:45.943Z,70.56
2023-03-21T00:39:11.885Z,72.79
2023-03-21T00:41:42.907Z,73.58
2023-03-21T00:44:13.810Z,73.81
2023-03-21T00:46:47.308Z,74.07
2023-03-21T00:49:21.534Z,73.98
2023-03-21T00:51:51.196Z,74.17
2023-03-21T00:54:18.231Z,74.59
2023-03-21T00:56:45.102Z,74.17
2023-03-21T00:59:11.833Z,73.63
2023-03-21T01:01:38.689Z,73.78
2023-03-21T01:04:07.617Z,74.59
2023-03-21T01:06:40.310Z,73.98
2023-03-21T01:09:11.190Z,75.00
2023-03-21T01:11:37.980Z,74.94
2023-03-21T01:14:20.972Z,73.94
2023-03-21T01:16:49.855Z,75.56
2023-03-21T01:19:25.550Z,75.90
2023-03-21T01:21:56.701Z,76.22
2023-03-21T01:24:23.508Z,75.09
2023-03-21T01:26:50.181Z,75.09
2023-03-21T01:29:16.966Z,74.67
2023-03-21T01:31:43.673Z,75.55
2023-03-21T01:34:10.425Z,75.02
2023-03-21T01:36:37.218Z,75.61
2023-03-21T01:39:06.155Z,77.50
2023-03-21T01:41:42.977Z,76.64
2023-03-21T01:44:15.570Z,75.22
2023-03-21T01:47:11.620Z,76.41
2023-03-21T01:49:39.074Z,75.00
2023-03-21T01:52:13.073Z,75.08
2023-03-21T01:54:41.631Z,75.07
2023-03-21T01:57:12.524Z,75.76
2023-03-21T01:59:50.711Z,75.15
2023-03-21T02:02:29.011Z,77.09
2023-03-21T02:04:58.125Z,77.24
2023-03-21T02:07:29.212Z,77.92
2023-03-21T02:09:56.186Z,76.46
2023-03-21T02:12:23.253Z,76.21
2023-03-21T02:14:50.329Z,76.22
2023-03-21T02:17:38.782Z,75.21
2023-03-21T02:20:27.052Z,75.89
2023-03-21T02:23:18.266Z,76.44
2023-03-21T02:25:56.811Z,75.90
2023-03-21T02:28:31.732Z,75.04
2023-03-21T02:31:12.149Z,74.83
2023-03-21T02:33:57.670Z,75.07
2023-03-21T02:36:28.740Z,75.34
2023-03-21T02:38:56.770Z,75.00
2023-03-21T02:41:47.971Z,75.75
2023-03-21T02:44:25.332Z,76.02
2023-03-21T02:47:10.868Z,77.34
2023-03-21T02:49:45.356Z,77.80
2023-03-21T02:52:28.297Z,77.69
2023-03-21T02:55:00.009Z,77.44
2023-03-21T02:57:33.802Z,77.09
2023-03-21T03:00:16.631Z,76.84
2023-03-21T03:02:44.243Z,76.46
2023-03-21T03:05:21.543Z,76.39
2023-03-21T03:08:18.729Z,76.22
2023-03-21T03:10:54.515Z,76.03
2023-03-21T03:13:43.020Z,76.20
2023-03-21T03:16:13.539Z,76.33
2023-03-21T03:18:53.180Z,76.08
2023-03-21T03:21:39.964Z,76.01
2023-03-21T03:24:29.874Z,76.00
2023-03-21T03:27:05.275Z,75.96
2023-03-21T03:29:34.140Z,75.97
2023-03-21T03:32:05.485Z,75.19
2023-03-21T03:34:40.728Z,75.56
2023-03-21T03:37:10.763Z,75.32
2023-03-21T03:39:46.456Z,75.04
2023-03-21T03:42:28.389Z,74.99
2023-03-21T03:44:55.972Z,75.29
2023-03-21T03:47:50.794Z,75.19
2023-03-21T03:50:36.571Z,75.55
2023-03-21T03:53:18.965Z,75.37
2023-03-21T03:55:46.681Z,75.36
2023-03-21T03:58:22.868Z,75.62
2023-03-21T04:00:52.570Z,75.31
2023-03-21T04:03:19.509Z,75.33
2023-03-21T04:05:46.693Z,75.33
2023-03-21T04:08:14.353Z,75.00
2023-03-21T04:10:42.458Z,74.92
2023-03-21T04:13:09.258Z,74.95
2023-03-21T04:15:36.206Z,74.85
2023-03-21T04:18:03.413Z,74.88
2023-03-21T04:20:43.381Z,74.79
2023-03-21T04:23:11.252Z,74.58
2023-03-21T04:25:44.633Z,74.76
2023-03-21T04:28:17.527Z,74.56
2023-03-21T04:30:58.940Z,74.78
2023-03-21T04:33:27.922Z,74.59
2023-03-21T04:35:56.338Z,74.79
2023-03-21T04:38:23.768Z,75.00
2023-03-21T04:40:50.602Z,74.74
2023-03-21T04:43:17.322Z,75.07
2023-03-21T04:45:44.454Z,75.01
2023-03-21T04:48:11.221Z,74.92
2023-03-21T04:50:38.258Z,74.64
2023-03-21T04:53:05.306Z,74.89
2023-03-21T04:55:32.475Z,74.75
2023-03-21T04:57:59.704Z,75.16
2023-03-21T05:00:27.170Z,74.85
2023-03-21T05:02:53.854Z,75.04
2023-03-21T05:05:20.642Z,74.83
2023-03-21T05:07:47.431Z,74.77
2023-03-21T05:10:14.274Z,74.39
2023-03-21T05:12:41.396Z,74.27
2023-03-21T05:15:08.909Z,74.06
2023-03-21T05:17:35.658Z,73.84
2023-03-21T05:20:02.476Z,73.43
2023-03-21T05:22:29.325Z,73.33
2023-03-21T05:24:56.083Z,73.10
2023-03-21T05:27:35.576Z,72.71
2023-03-21T05:30:08.630Z,72.80
2023-03-21T05:32:35.354Z,72.54
2023-03-21T05:35:02.290Z,71.98
2023-03-21T05:37:29.179Z,71.79
2023-03-21T05:39:55.982Z,71.16
2023-03-21T05:42:22.875Z,71.15
2023-03-21T05:44:49.622Z,70.77
2023-03-21T05:47:19.159Z,70.35
2023-03-21T05:49:46.054Z,69.75
2023-03-21T05:52:12.932Z,69.33
2023-03-21T05:54:39.718Z,68.54
2023-03-21T05:57:06.675Z,68.05
2023-03-21T05:59:33.721Z,67.84
2023-03-21T06:02:00.766Z,67.29
2023-03-21T06:04:27.826Z,66.79
2023-03-21T06:06:54.863Z,66.48
2023-03-21T06:09:22.606Z,66.25
2023-03-21T06:11:51.350Z,65.79
2023-03-21T06:14:18.587Z,65.68
2023-03-21T06:16:45.394Z,65.32
2023-03-21T06:19:12.388Z,64.79
2023-03-21T06:21:39.192Z,64.41
2023-03-21T06:24:06.304Z,63.89
2023-03-21T06:26:32.991Z,63.25
2023-03-21T06:28:59.701Z,62.45
2023-03-21T06:31:26.760Z,61.53
2023-03-21T06:33:53.598Z,61.07
2023-03-21T06:36:20.609Z,60.37
2023-03-21T06:38:48.640Z,59.90
2023-03-21T06:41:16.879Z,58.38
2023-03-21T06:43:44.203Z,57.20
2023-03-21T06:46:11.415Z,55.56
2023-03-21T06:48:44.286Z,55.02
2023-03-21T06:51:12.785Z,53.61
2023-03-21T06:53:41.446Z,52.80
2023-03-21T06:56:11.866Z,51.60
2023-03-21T06:58:38.708Z,52.00
2023-03-21T07:01:05.988Z,52.24
2023-03-21T07:03:34.126Z,52.45
2023-03-21T07:06:07.086Z,52.53
2023-03-21T07:08:33.995Z,52.07
2023-03-21T07:11:01.966Z,51.83
2023-03-21T07:13:28.687Z,52.02
2023-03-21T07:15:55.644Z,51.56
2023-03-21T07:18:22.451Z,51.34
2023-03-21T07:20:51.111Z,51.00
2023-03-21T07:23:19.478Z,50.59
2023-03-21T07:25:48.431Z,50.42
2023-03-21T07:28:16.304Z,50.46
2023-03-21T07:30:44.129Z,49.74
2023-03-21T07:33:11.522Z,49.79
2023-03-21T07:35:38.768Z,49.59
2023-03-21T07:38:05.925Z,47.83
2023-03-21T07:40:32.808Z,46.80
2023-03-21T07:42:59.581Z,45.73
2023-03-21T07:45:27.393Z,44.63
2023-03-21T07:47:54.526Z,42.67
2023-03-21T07:50:21.629Z,41.38
2023-03-21T07:52:48.702Z,41.09
2023-03-21T07:55:17.306Z,38.61
2023-03-21T07:57:44.133Z,38.90
2023-03-21T08:00:12.709Z,39.80
2023-03-21T08:02:40.195Z,36.95
2023-03-21T08:05:07.247Z,36.40
2023-03-21T08:07:33.999Z,35.65
2023-03-21T08:10:01.297Z,35.31
2023-03-21T08:12:29.017Z,34.38
2023-03-21T08:14:55.933Z,36.33
2023-03-21T08:17:22.707Z,34.00
2023-03-21T08:19:49.506Z,32.98
2023-03-21T08:22:16.331Z,33.11
2023-03-21T08:24:43.154Z,32.35
2023-03-21T08:27:09.902Z,32.34
2023-03-21T08:29:40.516Z,31.13
2023-03-21T08:32:07.331Z,31.74
2023-03-21T08:34:34.017Z,31.82
2023-03-21T08:37:01.362Z,31.23
2023-03-21T08:39:28.505Z,32.07
2023-03-21T08:41:55.370Z,32.26
2023-03-21T08:44:22.183Z,31.52
2023-03-21T08:46:48.943Z,32.13
2023-03-21T08:49:15.658Z,33.82
2023-03-21T08:51:45.778Z,31.81
2023-03-21T08:54:22.632Z,30.46
2023-03-21T08:56:49.512Z,29.73
2023-03-21T08:59:17.562Z,29.42
2023-03-21T09:01:45.134Z,30.66
2023-03-21T09:04:18.920Z,30.41
2023-03-21T09:06:51.094Z,29.88
2023-03-21T09:09:19.842Z,29.13
2023-03-21T09:11:47.355Z,28.82
2023-03-21T09:14:14.140Z,28.42
2023-03-21T09:16:41.268Z,27.60
2023-03-21T09:19:08.708Z,28.31
2023-03-21T09:21:36.773Z,28.86
2023-03-21T09:24:06.583Z,28.78
2023-03-21T09:26:33.692Z,28.59
2023-03-21T09:29:01.061Z,28.64
2023-03-21T09:31:28.663Z,28.55
2023-03-21T09:33:58.019Z,27.38
2023-03-21T09:36:27.228Z,27.45
2023-03-21T09:38:54.785Z,27.23
2023-03-21T09:41:54.135Z,29.72
2023-03-21T09:45:01.746Z,32.51
2023-03-21T09:47:34.761Z,31.68
2023-03-21T09:50:14.433Z,32.00
2023-03-21T09:52:50.689Z,31.69
2023-03-21T09:55:23.906Z,32.50
2023-03-21T09:58:16.249Z,30.36
2023-03-21T10:00:46.505Z,29.89
2023-03-21T10:03:26.283Z,27.68
2023-03-21T10:05:58.877Z,26.00
2023-03-21T10:08:30.789Z,25.40
2023-03-21T10:11:01.736Z,24.68
2023-03-21T10:13:36.030Z,26.08
2023-03-21T10:16:30.620Z,28.25
2023-03-21T10:18:59.643Z,27.38
2023-03-21T10:21:51.734Z,28.44
2023-03-21T10:24:20.695Z,28.04
2023-03-21T10:26:48.461Z,26.58
2023-03-21T10:29:16.787Z,26.83
2023-03-21T10:31:45.248Z,28.53
2023-03-21T10:34:36.039Z,28.74
2023-03-21T10:37:04.453Z,31.02
2023-03-21T10:39:39.292Z,32.30
2023-03-21T10:42:06.750Z,30.80
2023-03-21T10:44:35.146Z,29.62
2023-03-21T10:47:06.416Z,27.81
2023-03-21T10:49:40.754Z,27.75
2023-03-21T10:52:22.495Z,26.05
2023-03-21T10:54:49.669Z,24.29
2023-03-21T10:57:22.543Z,23.87
2023-03-21T10:59:57.997Z,23.70
2023-03-21T11:02:30.396Z,23.19
2023-03-21T11:04:58.380Z,23.85
2023-03-21T11:07:30.977Z,22.82
2023-03-21T11:09:59.942Z,21.35
2023-03-21T11:12:38.560Z,21.63
2023-03-21T11:15:40.187Z,21.16
2023-03-21T11:18:22.036Z,19.73
2023-03-21T11:20:51.904Z,19.41
2023-03-21T11:23:20.718Z,19.65
2023-03-21T11:25:50.131Z,18.69
2023-03-21T11:28:22.980Z,18.28
2023-03-21T11:30:59.116Z,19.58
2023-03-21T11:33:28.822Z,18.20
2023-03-21T11:36:04.080Z,17.50
2023-03-21T11:38:38.208Z,17.84
2023-03-21T11:41:06.896Z,19.10
2023-03-21T11:43:39.710Z,18.26
2023-03-21T11:46:13.785Z,19.69
2023-03-21T11:48:45.721Z,21.13
2023-03-21T11:51:38.249Z,21.30
2023-03-21T11:54:20.280Z,19.54
2023-03-21T11:56:49.472Z,17.21
2023-03-21T11:59:16.623Z,18.60
2023-03-21T12:01:43.837Z,18.94
2023-03-21T12:05:11.211Z,20.56
2023-03-21T12:07:58.179Z,22.36
2023-03-21T12:10:37.650Z,21.54
2023-03-21T12:13:19.799Z,19.47
2023-03-21T12:16:09.264Z,17.57
2023-03-21T12:18:49.914Z,15.25
2023-03-21T12:21:31.714Z,16.18
2023-03-21T12:24:01.201Z,17.78
2023-03-21T12:26:38.868Z,16.91
2023-03-21T12:29:09.855Z,20.51
2023-03-21T12:31:44.295Z,20.99
2023-03-21T12:34:15.246Z,22.41
2023-03-21T12:36:51.433Z,23.59
2023-03-21T12:39:18.361Z,26.62
2023-03-21T12:41:54.660Z,26.27
2023-03-21T12:44:22.790Z,26.99
2023-03-21T12:47:09.462Z,28.70
2023-03-21T12:49:38.886Z,27.48
2023-03-21T12:52:13.226Z,29.48
2023-03-21T12:54:55.625Z,27.98
2023-03-21T12:57:56.437Z,28.60
2023-03-21T13:00:27.776Z,23.89
2023-03-21T13:02:59.018Z,21.55
2023-03-21T13:05:28.858Z,21.90
2023-03-21T13:08:03.750Z,23.82
2023-03-21T13:10:30.696Z,25.57
2023-03-21T13:13:34.223Z,23.92
2023-03-21T13:16:03.587Z,23.13
2023-03-21T13:18:56.594Z,22.99
2023-03-21T13:21:43.917Z,22.12
2023-03-21T13:24:33.110Z,20.15
2023-03-21T13:27:20.071Z,22.24
2023-03-21T13:30:19.126Z,19.07
2023-03-21T13:32:49.307Z,20.96
2023-03-21T13:35:18.961Z,20.94
2023-03-21T13:38:01.873Z,18.88
2023-03-21T13:40:48.861Z,16.93
2023-03-21T13:43:40.204Z,15.88
2023-03-21T13:46:15.968Z,13.77
2023-03-21T13:49:01.870Z,13.55
2023-03-21T13:51:38.575Z,12.63
2023-03-21T13:54:08.679Z,13.03
2023-03-21T13:56:47.497Z,11.13
2023-03-21T13:59:18.807Z,11.81
2023-03-21T14:01:58.810Z,11.66
2023-03-21T14:04:41.923Z,11.83
2023-03-21T14:07:26.480Z,10.82
2023-03-21T14:09:55.839Z,11.15
2023-03-21T14:12:24.559Z,10.99
2023-03-21T14:14:55.204Z,10.50
2023-03-21T14:17:26.044Z,11.07
2023-03-21T14:20:14.463Z,10.91
2023-03-21T14:22:41.715Z,11.24
2023-03-21T14:25:13.500Z,10.79
2023-03-21T14:27:43.680Z,10.34
2023-03-21T14:30:22.011Z,10.02
2023-03-21T14:32:48.838Z,10.36
2023-03-21T14:35:15.611Z,12.74
2023-03-21T14:37:44.733Z,13.67
2023-03-21T14:40:26.580Z,12.92
2023-03-21T14:42:54.419Z,12.33
2023-03-21T14:45:28.731Z,12.14
2023-03-21T14:48:07.663Z,10.97
2023-03-21T14:50:48.291Z,12.74
2023-03-21T14:53:25.390Z,12.57
2023-03-21T14:56:04.326Z,12.86
2023-03-21T14:58:38.416Z,12.96
2023-03-21T15:01:14.655Z,13.01
2023-03-21T15:03:44.675Z,13.15
2023-03-21T15:06:13.588Z,13.56
2023-03-21T15:08:40.855Z,13.70
2023-03-21T15:11:11.618Z,13.57
2023-03-21T15:13:46.190Z,14.08
2023-03-21T15:16:14.967Z,13.51
2023-03-21T15:18:43.016Z,13.49
2023-03-21T15:21:13.383Z,13.81
2023-03-21T15:23:45.242Z,14.67
2023-03-21T15:26:16.930Z,14.81
2023-03-21T15:28:46.619Z,15.88
2023-03-21T15:31:21.658Z,16.88
2023-03-21T15:33:49.248Z,16.31
2023-03-21T15:36:22.378Z,15.94
2023-03-21T15:38:49.896Z,16.26
2023-03-21T15:41:19.668Z,16.87
2023-03-21T15:43:55.031Z,18.58
2023-03-21T15:46:34.148Z,22.01
2023-03-21T15:49:31.179Z,23.62
2023-03-21T15:52:09.943Z,26.25
2023-03-21T15:54:50.229Z,28.81
2023-03-21T15:57:22.636Z,29.67
2023-03-21T15:59:49.623Z,31.77
2023-03-21T16:02:19.315Z,30.75
2023-03-21T16:05:18.059Z,33.25
2023-03-21T16:07:46.169Z,32.01
2023-03-21T16:10:39.143Z,33.53
2023-03-21T16:13:06.684Z,34.10
2023-03-21T16:15:33.461Z,33.62
2023-03-21T16:18:01.839Z,34.32
2023-03-21T16:20:50.503Z,34.92
2023-03-21T16:23:17.385Z,35.88
2023-03-21T16:25:44.399Z,36.75
2023-03-21T16:28:17.541Z,36.82
2023-03-21T16:30:44.966Z,37.07
2023-03-21T16:33:12.515Z,37.93
2023-03-21T16:35:39.826Z,38.05
2023-03-21T16:38:06.606Z,38.35
2023-03-21T16:40:39.572Z,38.65
2023-03-21T16:43:07.337Z,39.14
2023-03-21T16:45:34.196Z,39.83
2023-03-21T16:48:02.110Z,39.60
2023-03-21T16:50:29.550Z,39.89
2023-03-21T16:52:57.088Z,40.10
2023-03-21T16:55:24.701Z,40.70
2023-03-21T16:57:52.488Z,40.84
2023-03-21T17:00:26.076Z,41.21
2023-03-21T17:02:54.922Z,41.49
2023-03-21T17:05:26.218Z,42.08
2023-03-21T17:07:54.508Z,42.19
2023-03-21T17:10:24.039Z,42.53
2023-03-21T17:12:50.816Z,42.94
2023-03-21T17:15:18.057Z,43.17
2023-03-21T17:17:45.771Z,43.74
2023-03-21T17:20:28.176Z,44.10
2023-03-21T17:22:54.960Z,44.26
2023-03-21T17:25:21.885Z,44.78
2023-03-21T17:27:49.271Z,45.08
2023-03-21T17:30:31.644Z,45.47
2023-03-21T17:32:58.903Z,46.26
2023-03-21T17:35:26.650Z,46.52
2023-03-21T17:37:54.126Z,46.91
2023-03-21T17:40:23.752Z,47.37
2023-03-21T17:42:51.647Z,47.49
2023-03-21T17:45:18.689Z,47.89
2023-03-21T17:47:45.841Z,48.37
2023-03-21T17:50:19.096Z,48.79
2023-03-21T17:52:46.925Z,49.32
2023-03-21T17:55:17.834Z,49.39
2023-03-21T17:57:44.751Z,49.44
2023-03-21T18:00:16.773Z,49.93
2023-03-21T18:02:43.576Z,49.96
2023-03-21T18:05:10.762Z,50.39
2023-03-21T18:08:08.140Z,50.49
2023-03-21T18:10:26.552Z,50.69
2023-03-21T18:12:56.040Z,51.00
2023-03-21T18:15:24.573Z,51.90
2023-03-21T18:17:51.515Z,51.75
2023-03-21T18:20:21.102Z,52.19
2023-03-21T18:22:48.085Z,52.12
2023-03-21T18:25:15.937Z,52.06
2023-03-21T18:28:06.891Z,52.20
2023-03-21T18:31:00.388Z,52.41
2023-03-21T18:33:16.544Z,52.30
2023-03-21T18:35:43.562Z,52.35
2023-03-21T18:38:10.524Z,52.70
2023-03-21T18:40:37.566Z,52.53
2023-03-21T18:45:52.012Z,52.37
2023-03-21T18:48:18.784Z,52.26
2023-03-21T18:50:46.035Z,52.57
2023-03-21T18:53:12.693Z,52.55
2023-03-21T18:55:45.946Z,52.67
2023-03-21T18:58:13.505Z,52.57
2023-03-21T19:00:40.897Z,52.57
2023-03-21T19:03:19.289Z,52.41
2023-03-21T19:05:58.579Z,52.53
2023-03-21T19:08:25.799Z,52.39
2023-03-21T19:10:53.097Z,52.21
2023-03-21T19:13:19.880Z,52.35
2023-03-21T19:15:49.463Z,52.37
2023-03-21T19:21:05.590Z,52.50
2023-03-21T19:23:56.360Z,52.66
2023-03-21T19:26:19.302Z,52.67
2023-03-21T19:28:46.081Z,52.64
2023-03-21T19:31:12.797Z,52.54
2023-03-21T19:33:39.637Z,52.90
2023-03-21T19:36:18.080Z,53.01
2023-03-21T19:38:48.521Z,53.14
2023-03-21T19:41:15.541Z,53.44
2023-03-21T19:43:53.214Z,53.76
2023-03-21T19:46:24.661Z,53.86
2023-03-21T19:48:51.716Z,54.29
2023-03-21T19:51:28.366Z,54.77
2023-03-21T19:53:56.427Z,54.42
2023-03-21T19:56:26.751Z,54.74
2023-03-21T19:58:57.033Z,54.62
2023-03-21T20:01:24.800Z,54.89
2023-03-21T20:03:52.414Z,54.78
2023-03-21T20:06:19.632Z,55.14
2023-03-21T20:09:34.059Z,55.01
2023-03-21T20:11:33.943Z,55.34
2023-03-21T20:14:03.061Z,55.43
2023-03-21T20:16:35.835Z,55.91
2023-03-21T20:19:08.729Z,56.25
2023-03-21T20:21:46.571Z,56.60
2023-03-21T20:24:16.450Z,56.79
2023-03-21T20:26:45.015Z,56.88
2023-03-21T20:30:03.802Z,56.85
2023-03-21T20:31:58.934Z,57.03
2023-03-21T20:34:25.858Z,56.62
2023-03-21T20:36:53.364Z,56.78
2023-03-21T20:39:20.170Z,56.84
2023-03-21T20:41:46.884Z,56.89
2023-03-21T20:44:44.779Z,57.14
2023-03-21T20:47:00.478Z,57.30
2023-03-21T20:49:28.416Z,57.58
2023-03-21T20:54:43.570Z,57.31
2023-03-21T20:57:10.762Z,57.42
2023-03-21T20:59:37.582Z,57.71
2023-03-21T21:02:05.301Z,57.90
2023-03-21T21:04:52.791Z,57.99
2023-03-21T21:07:21.368Z,57.81
2023-03-21T21:09:48.923Z,58.00
2023-03-21T21:12:19.181Z,58.18
2023-03-21T21:14:47.828Z,58.07
2023-03-21T21:17:31.161Z,58.55
2023-03-21T21:20:02.460Z,58.53
2023-03-21T21:22:29.398Z,58.53
2023-03-21T21:24:56.281Z,58.69
2023-03-21T21:27:23.050Z,58.67
2023-03-21T21:29:50.196Z,59.55
2023-03-21T21:32:18.688Z,59.39
2023-03-21T21:34:45.635Z,59.39
2023-03-21T21:37:12.460Z,59.45
2023-03-21T21:39:40.233Z,60.71
2023-03-21T21:42:07.037Z,60.28
2023-03-21T21:44:33.823Z,60.28
2023-03-21T21:47:04.145Z,60.67
2023-03-21T21:49:31.218Z,60.80
2023-03-21T21:51:59.822Z,60.96
2023-03-21T21:54:30.070Z,60.67
2023-03-21T21:56:57.997Z,60.81
2023-03-21T21:59:24.796Z,60.62
2023-03-21T22:01:51.883Z,60.98
2023-03-21T22:04:24.741Z,60.80
2023-03-21T22:06:51.950Z,61.24
2023-03-21T22:09:18.970Z,62.02
2023-03-21T22:11:45.889Z,61.70
2023-03-21T22:14:12.875Z,61.41
2023-03-21T22:16:39.727Z,61.38
2023-03-21T22:19:06.571Z,61.28
2023-03-21T22:21:33.322Z,61.96
2023-03-21T22:24:00.018Z,61.94
2023-03-21T22:26:26.846Z,62.45
2023-03-21T22:28:53.546Z,62.40
2023-03-21T22:31:20.682Z,61.41
2023-03-21T22:33:48.671Z,61.22
2023-03-21T22:36:15.419Z,60.57
2023-03-21T22:38:43.901Z,60.67
2023-03-21T22:41:10.921Z,60.58
2023-03-21T22:43:37.911Z,60.53
2023-03-21T22:46:05.454Z,60.46
2023-03-21T22:48:32.649Z,60.52
2023-03-21T22:50:59.818Z,60.96
2023-03-21T22:53:26.606Z,61.15
2023-03-21T22:55:53.324Z,61.23
2023-03-21T22:58:20.307Z,61.38
2023-03-21T23:00:47.459Z,61.62
2023-03-21T23:03:16.640Z,61.65
2023-03-21T23:05:44.209Z,61.54
2023-03-21T23:08:11.305Z,61.39
2023-03-21T23:10:39.631Z,61.98
2023-03-21T23:13:06.660Z,62.19
2023-03-21T23:15:33.390Z,61.85
2023-03-21T23:18:00.145Z,62.03
2023-03-21T23:20:26.994Z,62.29
2023-03-21T23:22:53.768Z,62.28
2023-03-21T23:25:20.651Z,62.05
2023-03-21T23:27:47.953Z,62.61
2023-03-21T23:30:15.048Z,62.49
2023-03-21T23:32:57.458Z,63.08
2023-03-21T23:35:24.430Z,63.77
2023-03-21T23:37:52.768Z,64.80
2023-03-21T23:40:20.820Z,64.38
2023-03-21T23:42:47.551Z,64.82
2023-03-21T23:45:14.352Z,65.14
2023-03-21T23:47:41.122Z,65.11
2023-03-21T23:50:09.734Z,65.96
2023-03-21T23:52:37.459Z,66.45
2023-03-21T23:55:07.937Z,66.40
2023-03-21T23:57:34.789Z,66.30
